createdAt,value
2018-08-31T00:01:19.508Z,19.50
2018-08-31T00:04:30.874Z,19.40
2018-08-31T00:07:24.810Z,19.50
2018-08-31T00:12:29.719Z,19.30
2018-08-31T00:15:04.525Z,19.30
2018-08-31T00:17:40.407Z,18.90
2018-08-31T00:20:15.348Z,19.10
2018-08-31T00:22:50.087Z,19.20
2018-08-31T00:26:07.391Z,19.30
2018-08-31T00:29:12.339Z,19.30
2018-08-31T00:31:59.395Z,19.30
2018-08-31T00:35:20.306Z,19.20
2018-08-31T00:38:05.705Z,19.30
2018-08-31T00:44:57.800Z,19.30
2018-08-31T00:47:33.832Z,19.30
2018-08-31T00:50:08.339Z,18.70
2018-08-31T00:52:43.707Z,18.90
2018-08-31T00:55:19.771Z,19.10
2018-08-31T00:57:54.132Z,19.20
2018-08-31T01:00:28.663Z,19.20
2018-08-31T01:03:02.994Z,19.20
2018-08-31T01:05:38.996Z,19.30
2018-08-31T01:08:13.419Z,19.30
2018-08-31T01:10:48.988Z,19.30
2018-08-31T01:13:24.594Z,19.30
2018-08-31T01:15:59.039Z,19.30
2018-08-31T01:18:35.115Z,19.30
2018-08-31T01:21:09.595Z,19.30
2018-08-31T01:23:46.227Z,19.30
2018-08-31T01:26:21.837Z,19.30
2018-08-31T01:28:56.319Z,19.30
2018-08-31T01:31:31.916Z,19.30
2018-08-31T01:34:07.857Z,19.30
2018-08-31T01:36:42.594Z,19.30
2018-08-31T01:39:17.009Z,19.30
2018-08-31T01:41:51.514Z,19.20
2018-08-31T01:44:25.811Z,19.20
2018-08-31T01:47:01.544Z,19.20
2018-08-31T01:49:36.988Z,19.10
2018-08-31T01:52:14.826Z,19.10
2018-08-31T01:54:50.941Z,19.10
2018-08-31T01:57:26.770Z,19.10
2018-08-31T02:00:01.089Z,19.00
2018-08-31T02:02:35.610Z,19.00
2018-08-31T02:05:20.057Z,19.10
2018-08-31T02:07:54.480Z,19.10
2018-08-31T02:10:30.181Z,19.10
2018-08-31T02:13:06.496Z,19.10
2018-08-31T02:15:40.978Z,19.10
2018-08-31T02:18:15.413Z,19.00
2018-08-31T02:20:51.205Z,19.00
2018-08-31T02:23:25.706Z,19.00
2018-08-31T02:26:00.430Z,19.00
2018-08-31T02:28:34.920Z,19.00
2018-08-31T02:31:10.707Z,19.00
2018-08-31T02:33:46.962Z,19.00
2018-08-31T02:36:21.581Z,19.00
2018-08-31T02:40:21.990Z,19.00
2018-08-31T02:42:56.544Z,19.00
2018-08-31T02:45:31.020Z,18.70
2018-08-31T02:48:06.856Z,18.70
2018-08-31T02:50:41.351Z,18.80
2018-08-31T02:53:17.367Z,18.90
2018-08-31T02:55:53.195Z,18.90
2018-08-31T02:58:27.507Z,18.80
2018-08-31T03:01:02.267Z,18.80
2018-08-31T03:03:38.108Z,18.80
2018-08-31T03:06:14.134Z,18.80
2018-08-31T03:08:56.569Z,18.80
2018-08-31T03:11:32.664Z,18.80
2018-08-31T03:14:16.351Z,18.70
2018-08-31T03:16:50.780Z,18.70
2018-08-31T03:19:26.548Z,18.60
2018-08-31T03:22:01.371Z,18.60
2018-08-31T03:24:36.069Z,18.70
2018-08-31T03:27:10.647Z,18.70
2018-08-31T03:29:46.692Z,18.70
2018-08-31T03:32:22.338Z,18.70
2018-08-31T03:34:56.779Z,18.70
2018-08-31T03:37:31.315Z,18.70
2018-08-31T03:40:08.675Z,18.70
2018-08-31T03:42:43.502Z,18.70
2018-08-31T03:45:17.859Z,18.70
2018-08-31T03:50:34.946Z,18.70
2018-08-31T03:53:12.151Z,18.60
2018-08-31T03:55:47.838Z,18.60
2018-08-31T03:58:22.360Z,18.60
2018-08-31T04:00:58.371Z,18.60
2018-08-31T04:03:34.019Z,18.70
2018-08-31T04:06:10.723Z,18.70
2018-08-31T04:08:54.766Z,18.70
2018-08-31T04:11:29.719Z,18.70
2018-08-31T04:14:04.207Z,18.70
2018-08-31T04:16:39.660Z,18.70
2018-08-31T04:19:23.112Z,18.70
2018-08-31T04:21:57.547Z,18.70
2018-08-31T04:24:31.975Z,18.70
2018-08-31T04:27:06.366Z,18.80
2018-08-31T04:29:42.199Z,18.80
2018-08-31T04:32:23.547Z,18.80
2018-08-31T04:34:57.839Z,18.80
2018-08-31T04:37:32.378Z,18.70
2018-08-31T04:40:08.086Z,18.70
2018-08-31T04:42:42.660Z,18.70
2018-08-31T04:45:16.911Z,18.60
2018-08-31T04:47:51.264Z,18.70
2018-08-31T04:50:25.789Z,18.60
2018-08-31T04:53:01.731Z,18.60
2018-08-31T04:55:37.471Z,18.60
2018-08-31T04:58:11.924Z,18.60
2018-08-31T05:00:51.019Z,18.60
2018-08-31T05:03:26.757Z,18.60
2018-08-31T05:06:02.679Z,18.60
2018-08-31T05:08:38.667Z,18.60
2018-08-31T05:11:14.160Z,18.60
2018-08-31T05:13:49.900Z,18.60
2018-08-31T05:16:25.935Z,18.70
2018-08-31T05:19:00.264Z,18.70
2018-08-31T05:21:34.680Z,18.70
2018-08-31T05:24:09.107Z,18.70
2018-08-31T05:26:47.247Z,18.80
2018-08-31T05:29:21.635Z,18.80
2018-08-31T05:31:57.763Z,18.80
2018-08-31T05:34:33.451Z,18.90
2018-08-31T05:37:07.910Z,18.80
2018-08-31T05:39:46.319Z,18.90
2018-08-31T05:42:20.730Z,18.90
2018-08-31T05:44:55.166Z,18.90
2018-08-31T05:47:30.828Z,18.90
2018-08-31T05:50:06.473Z,18.90
2018-08-31T05:52:42.195Z,18.90
2018-08-31T05:55:18.058Z,19.00
2018-08-31T05:57:52.534Z,19.00
2018-08-31T06:00:26.976Z,19.00
2018-08-31T06:03:02.716Z,19.10
